Time;durP1;ratioP1;P1;durP2;ratioP2;P2;SDS_P1;SDS_P2;PMS_P1;PMS_P2;Temp;Humidity;BMP_temperature;BMP_pressure;BME280_temperature;BME280_humidity;BME280_pressure;Samples;Min_cycle;Max_cycle;Signal;HPM_P1;HPM_P2
2023/06/10 00:00:41;;;;;;;6.57;5.53;;;;;;;21.72;48.40;101296.34;5035186;28;20415;-79
2023/06/10 00:03:07;;;;;;;6.30;5.70;;;;;;;21.68;48.61;101296.56;5030520;28;20025;-79
2023/06/10 00:05:32;;;;;;;5.80;5.20;;;;;;;21.65;48.72;101299.41;5032165;28;20029;-79
2023/06/10 00:07:58;;;;;;;5.72;5.10;;;;;;;21.62;48.65;101293.44;5030340;28;20078;-79
2023/06/10 00:10:24;;;;;;;6.32;5.40;;;;;;;21.59;48.74;101297.13;5033639;28;20029;-79
2023/06/10 00:12:49;;;;;;;7.00;5.40;;;;;;;21.57;49.03;101298.19;5031889;28;20113;-79
2023/06/10 00:15:15;;;;;;;6.75;5.32;;;;;;;21.54;49.16;101296.56;5032837;28;20033;-79
2023/06/10 00:17:40;;;;;;;6.55;5.18;;;;;;;21.51;49.07;101302.91;5032447;28;20029;-79
2023/06/10 00:20:11;;;;;;;7.45;5.20;;;;;;;21.46;49.06;101304.16;5035174;28;20021;-79
2023/06/10 00:22:37;;;;;;;7.22;5.10;;;;;;;21.43;49.24;101304.38;5035586;28;20037;-79
2023/06/10 00:25:03;;;;;;;8.18;4.93;;;;;;;21.39;49.19;101293.13;5031992;28;20104;-79
2023/06/10 00:27:34;;;;;;;6.63;5.30;;;;;;;21.35;49.28;101303.03;5030010;28;20072;-79
2023/06/10 00:30:01;;;;;;;6.55;5.20;;;;;;;21.31;49.62;101301.56;5032273;28;20032;-79
2023/06/10 00:32:26;;;;;;;11.38;5.15;;;;;;;21.27;49.84;101301.84;5033811;28;20384;-79
2023/06/10 00:34:51;;;;;;;8.23;5.07;;;;;;;21.22;49.85;101299.50;5031796;28;20017;-79
2023/06/10 00:37:17;;;;;;;6.30;5.15;;;;;;;21.17;49.71;101297.16;5029494;28;20053;-79
2023/06/10 00:39:42;;;;;;;9.23;5.45;;;;;;;21.15;50.13;101298.19;5031179;28;20026;-79
2023/06/10 00:42:08;;;;;;;6.85;5.28;;;;;;;21.10;50.76;101300.28;5031450;28;20021;-79
2023/06/10 00:44:33;;;;;;;7.05;5.50;;;;;;;21.04;51.51;101309.44;5030348;28;20029;-79
2023/06/10 00:46:58;;;;;;;6.68;5.53;;;;;;;20.99;52.40;101307.09;5030781;28;20071;-79
2023/06/10 00:49:24;;;;;;;7.15;5.47;;;;;;;20.93;52.46;101308.31;5033128;28;20029;-79
2023/06/10 00:51:51;;;;;;;5.60;5.00;;;;;;;20.88;53.63;101309.53;5034364;28;20021;-79
2023/06/10 00:54:17;;;;;;;6.55;5.38;;;;;;;20.81;53.17;101314.38;5029969;28;20484;-79
2023/06/10 00:56:43;;;;;;;6.20;5.18;;;;;;;20.76;53.98;101306.72;5032791;28;20088;-79
2023/06/10 00:59:08;;;;;;;7.43;5.65;;;;;;;20.73;52.28;101311.31;5033348;28;20052;-79
2023/06/10 01:01:34;;;;;;;8.93;5.63;;;;;;;20.68;52.35;101319.50;5034038;28;20448;-79
2023/06/10 01:03:59;;;;;;;6.88;6.15;;;;;;;20.63;52.59;101311.88;5031548;28;20087;-79
2023/06/10 01:06:48;;;;;;;9.70;5.60;;;;;;;20.60;52.80;101313.88;5032137;28;20496;-79
2023/06/10 01:09:37;;;;;;;6.88;5.85;;;;;;;20.56;52.96;101312.34;5030578;28;20033;-80
2023/06/10 01:12:21;;;;;;;6.85;5.63;;;;;;;20.51;53.59;101309.13;5031059;28;20018;-79
2023/06/10 01:14:48;;;;;;;6.80;5.53;;;;;;;20.44;55.04;101312.16;5032530;28;20029;-79
2023/06/10 01:17:16;;;;;;;6.93;5.78;;;;;;;20.40;55.08;101309.78;5030380;28;20060;-79
2023/06/10 01:19:43;;;;;;;6.80;5.97;;;;;;;20.37;54.70;101315.25;5034617;28;20029;-79
2023/06/10 01:22:10;;;;;;;7.63;6.13;;;;;;;20.32;54.37;101319.00;5034813;28;20036;-80
2023/06/10 01:24:36;;;;;;;7.85;5.78;;;;;;;20.29;55.07;101318.34;5036926;28;20032;-79
2023/06/10 01:27:06;;;;;;;7.50;6.53;;;;;;;20.25;55.21;101322.13;5040700;28;20031;-79
2023/06/10 01:29:40;;;;;;;7.20;5.82;;;;;;;20.21;55.30;101320.59;5035408;28;20469;-80
2023/06/10 01:32:11;;;;;;;6.82;6.13;;;;;;;;;;5041550;28;20043;-79
2023/06/10 01:34:42;;;;;;;6.28;5.65;;;;;;;20.09;54.65;101317.72;5055323;28;20025;-79
2023/06/10 01:37:09;;;;;;;6.95;5.50;;;;;;;20.07;54.74;101326.69;5055074;28;20103;-80
2023/06/10 01:39:35;;;;;;;9.35;6.72;;;;;;;20.02;54.76;101319.88;5040724;28;20033;-79
2023/06/10 01:42:02;;;;;;;6.93;6.22;;;;;;;20.00;54.94;101324.41;5036261;28;20101;-79
2023/06/10 01:44:27;;;;;;;8.32;6.50;;;;;;;19.97;54.90;101324.56;5043473;28;20032;-80
2023/06/10 01:46:52;;;;;;;7.70;6.30;;;;;;;19.96;55.40;101322.03;5055236;28;20021;-80
2023/06/10 01:49:18;;;;;;;9.38;6.25;;;;;;;19.93;54.89;101322.19;5050302;28;20501;-79
2023/06/10 01:51:43;;;;;;;6.95;6.13;;;;;;;19.91;55.35;101324.06;5034902;28;20025;-79
2023/06/10 01:54:08;;;;;;;8.40;6.43;;;;;;;19.84;55.27;101315.63;5033641;28;20036;-79
2023/06/10 01:56:34;;;;;;;7.72;6.05;;;;;;;19.82;55.72;101314.88;5034538;28;20076;-79
2023/06/10 01:58:59;;;;;;;7.53;6.65;;;;;;;19.77;55.70;101316.91;5034762;28;20415;-79
2023/06/10 02:01:25;;;;;;;8.30;6.10;;;;;;;19.74;56.19;101322.34;5035671;28;20472;-79
2023/06/10 02:03:51;;;;;;;7.93;6.57;;;;;;;19.70;56.38;101321.69;5033432;28;20392;-79
2023/06/10 02:06:16;;;;;;;9.02;7.07;;;;;;;19.65;56.67;101315.81;5035410;28;20044;-79
2023/06/10 02:08:41;;;;;;;8.05;6.80;;;;;;;19.61;57.81;101322.22;5033437;28;20044;-79
2023/06/10 02:11:07;;;;;;;7.75;6.47;;;;;;;19.59;57.17;101334.66;5034890;28;20025;-79
2023/06/10 02:13:32;;;;;;;8.07;6.97;;;;;;;19.54;56.63;101322.56;5032393;28;20108;-79
2023/06/10 02:15:57;;;;;;;10.88;7.20;;;;;;;19.50;57.93;101326.28;5034791;28;20033;-79
2023/06/10 02:18:23;;;;;;;7.40;6.57;;;;;;;19.50;57.07;101331.56;5034913;28;20555;-79
2023/06/10 02:20:48;;;;;;;9.52;7.10;;;;;;;19.47;57.50;101330.91;5032527;28;20037;-79
2023/06/10 02:23:14;;;;;;;7.18;6.47;;;;;;;19.43;57.52;101330.22;5036854;28;20112;-80
2023/06/10 02:25:39;;;;;;;8.55;7.18;;;;;;;19.39;58.34;101328.69;5033412;28;20029;-80
2023/06/10 02:28:05;;;;;;;11.00;7.35;;;;;;;19.36;57.73;101328.84;5032862;28;20025;-79
2023/06/10 02:30:30;;;;;;;8.50;7.22;;;;;;;19.32;57.76;101327.31;5033127;28;20107;-80
2023/06/10 02:32:56;;;;;;;9.40;7.30;;;;;;;19.32;58.23;101329.94;5036912;28;20022;-79
2023/06/10 02:35:23;;;;;;;7.90;6.82;;;;;;;19.29;57.64;101338.91;5034773;28;20036;-79
2023/06/10 02:37:49;;;;;;;9.23;6.82;;;;;;;19.29;58.13;101336.25;5033010;28;20029;-79
2023/06/10 02:40:15;;;;;;;7.68;6.65;;;;;;;19.26;57.81;101337.28;5031391;28;20029;-79
2023/06/10 02:42:40;;;;;;;8.63;6.88;;;;;;;19.24;58.29;101336.50;5033682;28;20212;-79
2023/06/10 02:45:06;;;;;;;8.45;7.60;;;;;;;19.22;58.01;101333.09;5033674;28;20044;-79
2023/06/10 02:47:31;;;;;;;8.85;6.95;;;;;;;19.21;58.60;101334.03;5031775;28;20025;-79
2023/06/10 02:49:56;;;;;;;9.80;7.43;;;;;;;19.18;58.66;101331.56;5033159;28;20033;-79
2023/06/10 02:52:22;;;;;;;16.35;8.82;;;;;;;19.13;58.59;101336.22;5032780;28;20370;-79
2023/06/10 02:54:47;;;;;;;10.77;8.07;;;;;;;19.08;59.28;101335.66;5032572;28;20034;-79
2023/06/10 02:57:14;;;;;;;10.40;7.05;;;;;;;19.04;59.24;101334.97;5033007;28;20037;-79
2023/06/10 02:59:40;;;;;;;12.82;7.82;;;;;;;19.00;59.25;101336.06;5032729;28;20025;-79
2023/06/10 03:02:05;;;;;;;8.32;7.03;;;;;;;18.96;59.23;101338.00;5033292;28;20439;-79
2023/06/10 03:04:31;;;;;;;8.52;7.47;;;;;;;18.93;59.81;101343.41;5031641;28;20104;-79
2023/06/10 03:06:56;;;;;;;8.27;7.40;;;;;;;18.90;59.23;101338.31;5037062;28;20021;-79
2023/06/10 03:09:21;;;;;;;9.35;7.60;;;;;;;18.85;61.39;101340.31;5031462;28;20476;-79
2023/06/10 03:11:46;;;;;;;9.35;7.65;;;;;;;18.84;61.07;101340.41;5031757;28;20029;-79
2023/06/10 03:14:12;;;;;;;9.35;7.53;;;;;;;18.77;60.67;101337.25;5035051;28;20086;-79
2023/06/10 03:16:40;;;;;;;11.02;7.72;;;;;;;18.72;61.51;101345.38;5033895;28;20032;-79
2023/06/10 03:19:06;;;;;;;9.65;8.00;;;;;;;18.69;61.82;101345.56;5029611;28;20040;-79
2023/06/10 03:21:31;;;;;;;9.05;7.68;;;;;;;18.68;61.40;101345.63;5029803;28;20021;-79
2023/06/10 03:23:56;;;;;;;8.45;7.55;;;;;;;18.65;60.32;101347.47;5030957;28;20022;-79
2023/06/10 03:26:21;;;;;;;9.43;7.53;;;;;;;18.64;60.62;101350.22;5030982;28;20033;-79
2023/06/10 03:28:47;;;;;;;8.95;7.55;;;;;;;18.63;60.83;101351.13;5031213;28;20055;-79
2023/06/10 03:31:13;;;;;;;10.50;8.23;;;;;;;18.62;60.70;101345.00;5031075;28;20052;-79
2023/06/10 03:33:38;;;;;;;9.15;7.80;;;;;;;18.61;60.64;101348.59;5031495;28;20033;-79
2023/06/10 03:36:04;;;;;;;9.30;8.18;;;;;;;18.59;60.40;101358.34;5029257;28;20030;-79
2023/06/10 03:38:29;;;;;;;8.60;7.35;;;;;;;18.58;60.68;101359.28;5031652;28;20064;-79
2023/06/10 03:40:55;;;;;;;8.35;7.28;;;;;;;18.59;60.48;101358.34;5031109;28;20384;-79
2023/06/10 03:43:22;;;;;;;9.10;7.38;;;;;;;18.59;60.51;101360.13;5031454;28;20487;-79
2023/06/10 03:45:49;;;;;;;8.32;7.43;;;;;;;18.57;60.55;101357.59;5032182;28;20044;-79
2023/06/10 03:48:14;;;;;;;9.93;7.57;;;;;;;18.57;60.69;101368.13;5030409;28;20476;-79
2023/06/10 03:50:40;;;;;;;9.65;7.22;;;;;;;18.55;60.29;101359.44;5030915;28;20029;-79
2023/06/10 03:53:05;;;;;;;10.60;7.15;;;;;;;18.54;60.58;101368.28;5030018;28;20052;-79
2023/06/10 03:55:30;;;;;;;8.65;7.30;;;;;;;18.52;60.38;101369.28;5032898;28;20048;-79
2023/06/10 03:57:56;;;;;;;7.57;6.50;;;;;;;18.50;60.68;101371.97;5034073;28;20389;-79
2023/06/10 04:00:21;;;;;;;8.02;7.10;;;;;;;18.48;60.56;101371.22;5033582;28;20055;-79
2023/06/10 04:02:49;;;;;;;7.93;7.10;;;;;;;18.48;60.66;101368.56;5032405;28;20021;-79
2023/06/10 04:05:16;;;;;;;8.65;7.30;;;;;;;18.46;60.65;101366.03;5029854;28;20029;-79
2023/06/10 04:07:42;;;;;;;11.10;7.03;;;;;;;18.47;60.48;101366.88;5031313;28;20025;-79
2023/06/10 04:10:09;;;;;;;9.13;7.35;;;;;;;18.47;60.75;101369.50;5032463;28;20037;-80
2023/06/10 04:12:35;;;;;;;8.32;6.63;;;;;;;18.47;60.55;101375.63;5031664;28;20403;-79
2023/06/10 04:15:00;;;;;;;8.52;6.40;;;;;;;18.48;60.31;101369.44;5039278;28;20418;-79
2023/06/10 04:17:26;;;;;;;8.15;6.93;;;;;;;18.47;60.33;101374.78;5033131;28;20492;-80
2023/06/10 04:19:51;;;;;;;7.63;6.82;;;;;;;18.47;60.29;101372.13;5030781;28;20055;-79
2023/06/10 04:22:17;;;;;;;9.07;7.88;;;;;;;18.48;60.35;101379.13;5032363;28;20029;-79
2023/06/10 04:24:43;;;;;;;8.55;6.95;;;;;;;18.47;60.52;101372.13;5031265;28;20049;-79
2023/06/10 04:27:08;;;;;;;9.73;6.75;;;;;;;18.47;60.13;101382.69;5031979;28;20044;-79
2023/06/10 04:29:34;;;;;;;7.90;6.93;;;;;;;18.48;60.16;101381.75;5031281;28;20025;-79
2023/06/10 04:31:59;;;;;;;9.05;6.30;;;;;;;18.48;59.96;101387.00;5034100;28;20043;-79
2023/06/10 04:34:25;;;;;;;7.68;6.47;;;;;;;18.48;60.51;101384.38;5031442;28;20057;-79
2023/06/10 04:36:50;;;;;;;8.02;6.70;;;;;;;18.50;60.27;101390.44;5030787;28;20057;-79
2023/06/10 04:39:16;;;;;;;8.05;7.00;;;;;;;18.52;60.63;101388.56;5032222;28;20021;-79
2023/06/10 04:41:42;;;;;;;7.75;6.43;;;;;;;18.53;60.07;101392.91;5030809;28;20064;-80
2023/06/10 04:44:07;;;;;;;8.80;6.85;;;;;;;18.55;60.24;101396.31;5035268;28;20264;-79
2023/06/10 04:46:33;;;;;;;8.93;6.38;;;;;;;18.57;60.26;101399.75;5031925;28;20017;-79
2023/06/10 04:48:58;;;;;;;7.82;6.45;;;;;;;18.58;60.07;101393.53;5046068;28;20112;-79
2023/06/10 04:51:23;;;;;;;7.90;6.40;;;;;;;18.61;59.92;101392.53;5035169;28;20022;-79
2023/06/10 04:53:48;;;;;;;8.52;6.28;;;;;;;18.63;61.59;101393.31;5030657;28;20029;-79
2023/06/10 04:56:15;;;;;;;8.25;6.80;;;;;;;18.65;59.93;101392.28;5030428;28;20061;-79
2023/06/10 04:58:40;;;;;;;7.82;6.10;;;;;;;18.68;60.36;101390.44;5033668;28;20428;-80
2023/06/10 05:01:05;;;;;;;9.02;6.47;;;;;;;18.70;60.15;101394.72;5034816;28;20026;-79
2023/06/10 05:03:31;;;;;;;9.10;6.50;;;;;;;18.74;59.92;101390.13;5029444;28;20496;-78
2023/06/10 05:05:56;;;;;;;9.30;6.68;;;;;;;18.78;60.02;101391.69;5034424;28;20169;-79
2023/06/10 05:08:21;;;;;;;8.38;6.47;;;;;;;18.81;59.64;101391.50;5039249;28;20037;-79
2023/06/10 05:10:47;;;;;;;8.40;6.50;;;;;;;18.87;59.96;101390.34;5029925;28;20030;-79
2023/06/10 05:13:12;;;;;;;10.25;6.60;;;;;;;18.90;60.46;101391.03;5029507;28;20025;-78
2023/06/10 05:15:37;;;;;;;7.93;6.50;;;;;;;18.96;59.54;101396.00;5030261;28;20026;-78
2023/06/10 05:18:03;;;;;;;8.13;6.43;;;;;;;19.00;60.39;101394.06;5030687;28;20021;-78
2023/06/10 05:20:28;;;;;;;8.07;6.43;;;;;;;19.06;59.71;101398.16;5030782;28;20029;-78
2023/06/10 05:22:54;;;;;;;8.52;6.07;;;;;;;19.10;59.46;101397.91;5034813;28;20082;-78
2023/06/10 05:25:19;;;;;;;8.07;6.50;;;;;;;19.15;59.47;101394.19;5030945;28;20037;-78
2023/06/10 05:27:44;;;;;;;7.78;6.10;;;;;;;19.22;60.60;101400.81;5029400;28;20018;-79
2023/06/10 05:30:11;;;;;;;12.00;6.43;;;;;;;19.24;58.91;101391.91;5030450;28;20053;-78
2023/06/10 05:32:36;;;;;;;7.07;5.95;;;;;;;19.29;59.82;101396.09;5030774;28;20029;-78
2023/06/10 05:35:03;;;;;;;9.73;6.32;;;;;;;19.34;58.85;101391.41;5030483;28;20044;-78
2023/06/10 05:37:29;;;;;;;8.05;6.15;;;;;;;19.39;58.88;101397.28;5028906;28;20022;-79
2023/06/10 05:39:54;;;;;;;12.68;6.70;;;;;;;19.44;58.96;101392.63;5032077;28;20506;-79
2023/06/10 05:42:19;;;;;;;7.68;5.97;;;;;;;19.50;58.66;101397.56;5032231;28;20021;-78
2023/06/10 05:44:45;;;;;;;7.40;5.65;;;;;;;19.55;58.81;101392.88;5031188;28;20047;-78
2023/06/10 05:47:10;;;;;;;7.68;5.90;;;;;;;19.59;57.65;101400.63;5032079;28;20079;-79
2023/06/10 05:49:35;;;;;;;8.10;6.30;;;;;;;19.61;58.48;101390.84;5029252;28;20511;-78
2023/06/10 05:52:01;;;;;;;9.10;6.15;;;;;;;19.67;57.94;101401.03;5030267;28;20084;-78
2023/06/10 05:54:26;;;;;;;9.60;6.15;;;;;;;19.70;58.24;101399.09;5033064;28;20025;-78
2023/06/10 05:56:52;;;;;;;9.63;5.78;;;;;;;19.76;58.45;101392.63;5033431;28;20128;-78
2023/06/10 05:59:17;;;;;;;7.38;5.88;;;;;;;19.83;57.93;101399.25;5029155;28;20389;-78
2023/06/10 06:01:42;;;;;;;8.55;6.28;;;;;;;19.90;58.17;101409.50;5031723;28;20033;-78
2023/06/10 06:04:08;;;;;;;10.32;5.93;;;;;;;19.94;57.88;101403.97;5027689;28;20049;-79
2023/06/10 06:06:33;;;;;;;8.88;6.05;;;;;;;19.99;58.03;101401.06;5032928;28;20018;-79
2023/06/10 06:08:58;;;;;;;8.00;5.90;;;;;;;20.03;57.12;101392.03;5032632;28;20025;-81
2023/06/10 06:11:25;;;;;;;9.57;6.10;;;;;;;20.09;57.84;101401.38;5034535;28;20446;-79
2023/06/10 06:13:50;;;;;;;8.70;5.53;;;;;;;20.15;56.88;101407.16;5036321;28;20075;-78
2023/06/10 06:16:16;;;;;;;7.18;5.82;;;;;;;20.19;57.07;101405.22;5029039;28;20540;-78
2023/06/10 06:18:42;;;;;;;13.23;6.13;;;;;;;20.26;56.68;101401.28;5039025;28;20029;-78
2023/06/10 06:21:08;;;;;;;9.50;5.97;;;;;;;20.31;56.67;101407.16;5034000;28;20048;-78
2023/06/10 06:23:33;;;;;;;8.07;5.88;;;;;;;20.35;56.92;101402.53;5035973;28;20373;-79
2023/06/10 06:25:58;;;;;;;8.65;6.07;;;;;;;20.39;55.65;101404.06;5033791;28;20079;-78
2023/06/10 06:28:28;;;;;;;7.68;5.93;;;;;;;20.41;55.50;101399.53;5032633;28;20507;-78
2023/06/10 06:30:54;;;;;;;8.55;6.00;;;;;;;20.46;55.99;101405.41;5036142;28;20052;-78
2023/06/10 06:33:19;;;;;;;7.03;5.43;;;;;;;20.50;55.05;101406.06;5032918;28;20050;-78
2023/06/10 06:35:44;;;;;;;7.43;5.60;;;;;;;20.54;55.22;101402.31;5033621;28;20029;-78
2023/06/10 06:38:09;;;;;;;8.73;5.38;;;;;;;20.59;55.17;101407.31;5033341;28;20061;-78
2023/06/10 06:40:35;;;;;;;8.20;5.75;;;;;;;20.66;54.70;101406.03;5032557;28;20021;-78
2023/06/10 06:43:00;;;;;;;7.55;5.90;;;;;;;20.72;55.42;101410.09;5035381;28;20024;-78
2023/06/10 06:45:25;;;;;;;7.50;5.25;;;;;;;20.77;55.77;101414.19;5034686;28;20029;-78
2023/06/10 06:47:51;;;;;;;7.72;5.15;;;;;;;20.84;55.92;101408.53;5032935;28;20017;-78
2023/06/10 06:50:16;;;;;;;6.57;5.38;;;;;;;20.91;55.18;101410.72;5034023;28;20476;-79
2023/06/10 06:52:41;;;;;;;8.43;5.75;;;;;;;21.00;55.96;101409.31;5032618;28;20384;-79
2023/06/10 06:55:07;;;;;;;7.28;5.25;;;;;;;21.08;55.84;101409.69;5035224;28;20384;-79
2023/06/10 06:57:32;;;;;;;8.68;5.45;;;;;;;21.15;54.58;101407.50;5034424;28;20092;-79
2023/06/10 06:59:57;;;;;;;10.25;5.55;;;;;;;21.20;54.78;101413.38;5032822;28;20084;-79
2023/06/10 07:02:23;;;;;;;8.07;5.68;;;;;;;21.24;55.40;101411.38;5035244;28;20361;-79
2023/06/10 07:04:49;;;;;;;6.18;4.90;;;;;;;21.31;54.69;101411.84;5034039;28;20029;-79
2023/06/10 07:07:14;;;;;;;6.55;5.43;;;;;;;21.37;54.08;101409.66;5032871;28;20088;-78
2023/06/10 07:09:40;;;;;;;8.57;5.25;;;;;;;21.45;54.92;101418.94;5033904;28;20476;-78
2023/06/10 07:12:06;;;;;;;7.78;5.60;;;;;;;21.51;54.24;101424.69;5033967;28;20025;-78
2023/06/10 07:14:31;;;;;;;8.10;5.22;;;;;;;21.55;53.21;101425.34;5043506;28;20025;-78
2023/06/10 07:16:56;;;;;;;7.75;5.35;;;;;;;21.59;53.37;101421.56;5033689;28;20116;-78
2023/06/10 07:19:21;;;;;;;10.68;5.30;;;;;;;21.63;52.93;101423.09;5038075;28;20365;-78
2023/06/10 07:21:47;;;;;;;10.85;5.70;;;;;;;21.70;53.27;101422.69;5034532;28;20057;-78
2023/06/10 07:24:12;;;;;;;6.75;5.30;;;;;;;21.74;53.23;101430.38;5034766;28;20427;-78
2023/06/10 07:26:38;;;;;;;7.63;5.20;;;;;;;21.79;53.21;101430.06;5034855;28;20036;-78
2023/06/10 07:29:03;;;;;;;7.50;5.22;;;;;;;21.85;54.18;101427.03;5028939;28;20033;-78
2023/06/10 07:31:28;;;;;;;6.78;4.55;;;;;;;21.89;52.44;101428.50;5038235;28;20020;-78
2023/06/10 07:33:54;;;;;;;8.30;5.28;;;;;;;21.93;52.46;101435.31;5038637;28;20036;-78
2023/06/10 07:36:19;;;;;;;8.85;5.20;;;;;;;21.96;53.12;101434.25;5031665;28;20022;-78
2023/06/10 07:38:44;;;;;;;7.25;4.97;;;;;;;22.02;52.29;101433.03;5031910;28;20018;-78
2023/06/10 07:41:14;;;;;;;6.78;4.70;;;;;;;22.05;51.44;101433.69;5032827;28;20092;-78
2023/06/10 07:43:39;;;;;;;9.05;5.10;;;;;;;22.08;52.19;101433.50;5033001;28;20484;-78
2023/06/10 07:46:05;;;;;;;9.85;4.90;;;;;;;22.14;52.36;101425.13;5032590;28;20091;-78
2023/06/10 07:48:30;;;;;;;8.70;4.60;;;;;;;22.19;52.12;101434.56;5034469;28;20539;-79
2023/06/10 07:50:56;;;;;;;6.40;4.82;;;;;;;22.22;52.12;101435.22;5032185;28;20025;-78
2023/06/10 07:53:21;;;;;;;6.80;4.57;;;;;;;22.27;52.25;101433.13;5031252;28;20032;-78
2023/06/10 07:55:46;;;;;;;7.03;5.28;;;;;;;22.33;51.53;101439.81;5027121;28;20030;-79
2023/06/10 07:58:11;;;;;;;7.20;4.90;;;;;;;22.38;50.94;101428.91;5030892;28;20021;-79
2023/06/10 08:00:37;;;;;;;8.70;4.97;;;;;;;22.41;50.11;101429.56;5032697;28;20472;-79
2023/06/10 08:03:02;;;;;;;7.80;5.15;;;;;;;22.47;51.67;101425.69;5032997;28;20041;-80
2023/06/10 08:05:27;;;;;;;7.68;4.75;;;;;;;22.54;51.48;101434.06;5029655;28;20465;-80
2023/06/10 08:07:53;;;;;;;5.57;4.47;;;;;;;22.61;52.52;101429.19;5032695;28;20025;-80
2023/06/10 08:10:18;;;;;;;6.68;4.97;;;;;;;22.69;52.29;101429.53;5031457;28;20099;-80
2023/06/10 08:12:43;;;;;;;7.18;4.78;;;;;;;22.76;49.99;101433.44;5032900;28;20037;-80
2023/06/10 08:15:09;;;;;;;8.32;4.90;;;;;;;22.83;49.21;101431.22;5033466;28;20424;-81
2023/06/10 08:17:34;;;;;;;7.55;4.65;;;;;;;22.88;50.51;101432.63;5031663;28;20120;-81
2023/06/10 08:20:00;;;;;;;6.45;4.78;;;;;;;22.95;50.08;101432.19;5029156;28;20026;-80
2023/06/10 08:22:26;;;;;;;8.30;4.47;;;;;;;22.99;49.54;101433.69;5033962;28;20037;-80
2023/06/10 08:24:51;;;;;;;7.68;4.70;;;;;;;23.02;49.92;101428.19;5035027;28;20586;-80
2023/06/10 08:27:16;;;;;;;6.10;4.82;;;;;;;23.09;50.73;101431.25;5031252;28;20022;-80
2023/06/10 08:29:41;;;;;;;6.68;4.80;;;;;;;23.17;50.58;101426.25;5031966;28;20439;-80
2023/06/10 08:32:07;;;;;;;6.78;4.70;;;;;;;23.23;49.29;101425.00;5031582;28;20030;-80
2023/06/10 08:34:36;;;;;;;7.43;4.80;;;;;;;23.30;48.86;101426.25;5030042;28;20032;-80
2023/06/10 08:37:03;;;;;;;6.53;4.70;;;;;;;23.36;49.26;101423.19;5032895;28;20033;-80
2023/06/10 08:39:31;;;;;;;6.50;4.60;;;;;;;23.44;49.40;101434.09;5027758;28;20037;-80
2023/06/10 08:42:03;;;;;;;7.22;4.97;;;;;;;23.52;48.28;101427.41;5032294;28;20155;-80
2023/06/10 08:44:29;;;;;;;7.43;5.00;;;;;;;23.57;48.00;101425.28;5031519;28;20025;-80
2023/06/10 08:46:59;;;;;;;7.80;4.60;;;;;;;23.66;48.85;101429.91;5031624;28;20044;-80
2023/06/10 08:49:26;;;;;;;6.77;4.40;;;;;;;23.72;47.49;101428.59;5029221;28;20037;-80
2023/06/10 08:51:57;;;;;;;7.13;4.32;;;;;;;23.77;48.08;101429.13;5038542;28;20033;-80
2023/06/10 08:54:27;;;;;;;7.85;4.32;;;;;;;23.83;46.91;101425.19;5030522;28;20025;-80
2023/06/10 08:56:55;;;;;;;7.75;4.60;;;;;;;23.90;46.77;101423.78;5033441;28;20445;-80
2023/06/10 08:59:21;;;;;;;8.25;4.72;;;;;;;23.93;47.35;101434.16;5033338;28;20388;-80
2023/06/10 09:01:47;;;;;;;6.07;4.35;;;;;;;23.97;48.44;101430.34;5028008;28;20025;-80
2023/06/10 09:04:13;;;;;;;5.97;4.10;;;;;;;24.02;47.72;101436.19;5027493;28;20040;-80
2023/06/10 09:06:39;;;;;;;6.63;4.60;;;;;;;24.07;47.83;101426.06;5026442;28;20446;-82
2023/06/10 09:09:06;;;;;;;8.80;4.78;;;;;;;24.09;46.34;101429.44;5027419;28;20043;-81
2023/06/10 09:11:32;;;;;;;8.05;4.20;;;;;;;24.10;46.36;101430.31;5028860;28;20078;-80
2023/06/10 09:13:57;;;;;;;7.82;4.40;;;;;;;24.10;46.03;101431.13;5027001;28;20109;-80
2023/06/10 09:16:24;;;;;;;6.05;4.40;;;;;;;24.12;45.88;101424.88;5039758;28;20435;-80
2023/06/10 09:18:54;;;;;;;9.07;4.53;;;;;;;24.16;45.60;101424.53;5028468;28;20095;-79
2023/06/10 09:21:21;;;;;;;6.38;4.53;;;;;;;24.21;45.31;101414.41;5031834;28;20329;-79
2023/06/10 09:23:47;;;;;;;6.65;4.05;;;;;;;24.27;45.52;101429.03;5029649;28;20041;-80
2023/06/10 09:26:12;;;;;;;8.95;4.47;;;;;;;24.31;45.42;101425.19;5030190;28;20021;-78
2023/06/10 09:28:39;;;;;;;5.47;4.22;;;;;;;24.34;44.75;101422.31;5027756;28;20028;-79
2023/06/10 09:31:05;;;;;;;5.30;4.30;;;;;;;24.38;45.25;101423.78;5028041;28;20105;-79
2023/06/10 09:33:31;;;;;;;7.50;4.22;;;;;;;24.44;46.44;101424.25;5028582;28;20491;-80
2023/06/10 09:36:00;;;;;;;5.65;4.28;;;;;;;24.48;45.06;101418.63;5030411;28;20043;-80
2023/06/10 09:38:29;;;;;;;6.68;4.50;;;;;;;24.53;44.92;101423.56;5029204;28;20037;-79
2023/06/10 09:40:55;;;;;;;5.43;4.15;;;;;;;24.60;45.69;101414.16;5036230;28;20490;-79
2023/06/10 09:43:21;;;;;;;8.05;4.60;;;;;;;24.65;44.03;101419.13;5033114;28;20029;-79
2023/06/10 09:45:52;;;;;;;5.93;4.43;;;;;;;24.70;44.82;101414.31;5035912;28;20025;-79
2023/06/10 09:48:18;;;;;;;6.32;4.18;;;;;;;24.75;44.46;101419.31;5034591;28;20469;-79
2023/06/10 09:50:44;;;;;;;5.60;4.10;;;;;;;24.78;43.70;101411.06;5032858;28;20025;-79
2023/06/10 09:53:10;;;;;;;7.30;4.65;;;;;;;24.82;44.36;101418.72;5032531;28;20036;-80
2023/06/10 09:55:40;;;;;;;5.57;4.32;;;;;;;24.87;44.32;101413.03;5032162;28;20025;-78
2023/06/10 09:58:06;;;;;;;9.23;4.55;;;;;;;24.94;44.56;101414.22;5040166;28;20053;-79
2023/06/10 10:00:36;;;;;;;5.75;4.25;;;;;;;24.99;44.11;101400.59;5035989;28;20037;-80
2023/06/10 10:03:02;;;;;;;5.88;4.43;;;;;;;25.04;42.87;101410.88;5037540;28;20224;-81
2023/06/10 10:05:27;;;;;;;6.60;4.40;;;;;;;25.07;43.93;101403.47;5034327;28;20108;-80
2023/06/10 10:07:53;;;;;;;8.23;4.70;;;;;;;25.12;43.91;101411.94;5032669;28;20091;-80
2023/06/10 10:10:20;;;;;;;5.70;4.53;;;;;;;25.15;42.93;101402.88;5032453;28;20033;-80
2023/06/10 10:12:47;;;;;;;7.70;4.55;;;;;;;25.17;42.25;101403.59;5032364;28;20042;-80
2023/06/10 10:15:13;;;;;;;7.28;4.80;;;;;;;25.19;43.09;101406.16;5033208;28;20033;-79
2023/06/10 10:17:48;;;;;;;6.88;4.50;;;;;;;25.22;43.44;101406.75;5034023;28;20029;-79
2023/06/10 10:20:18;;;;;;;6.75;4.13;;;;;;;25.28;43.17;101403.59;5034428;28;20106;-80
2023/06/10 10:22:45;;;;;;;6.13;4.50;;;;;;;25.34;43.28;101393.41;5039325;28;20028;-83
2023/06/10 10:25:15;;;;;;;7.90;4.72;;;;;;;25.37;43.63;101393.19;5028096;28;20018;-80
2023/06/10 10:27:48;;;;;;;7.17;4.77;;;;;;;25.39;42.09;101401.91;5038685;28;20476;-80
2023/06/10 10:30:16;;;;;;;7.85;4.63;;;;;;;25.43;41.80;101398.06;5031969;28;20090;-80
2023/06/10 10:32:50;;;;;;;7.15;4.32;;;;;;;25.50;43.38;101393.91;5036284;28;20028;-82
2023/06/10 10:35:23;;;;;;;6.28;4.45;;;;;;;25.57;43.49;101394.25;5025860;28;20393;-81
2023/06/10 10:37:51;;;;;;;5.63;4.45;;;;;;;25.60;44.12;101392.22;5033566;28;20037;-81
2023/06/10 10:40:17;;;;;;;7.43;4.70;;;;;;;25.64;43.44;101392.78;5031895;28;20033;-81
2023/06/10 10:42:43;;;;;;;5.55;4.25;;;;;;;25.65;41.31;101385.63;5041012;28;20021;-81
2023/06/10 10:45:09;;;;;;;6.88;4.70;;;;;;;25.62;40.77;101389.41;5035497;28;20415;-81
2023/06/10 10:47:37;;;;;;;6.30;4.72;;;;;;;25.64;42.24;101391.94;5043785;28;20025;-81
2023/06/10 10:50:14;;;;;;;6.07;4.50;;;;;;;25.67;42.81;101387.22;5040303;28;20112;-80
2023/06/10 10:52:52;;;;;;;5.93;4.57;;;;;;;25.72;42.47;101390.34;5026206;28;20034;-81
2023/06/10 10:55:17;;;;;;;5.05;4.45;;;;;;;25.73;41.41;101388.53;5031078;28;20056;-81
2023/06/10 10:57:43;;;;;;;8.23;4.90;;;;;;;25.75;40.48;101383.94;5030635;28;20501;-80
2023/06/10 11:00:09;;;;;;;6.22;4.57;;;;;;;25.76;42.16;101378.47;5032843;28;20542;-81
2023/06/10 11:02:45;;;;;;;9.05;4.70;;;;;;;25.80;40.86;101373.72;5031060;28;20051;-81
2023/06/10 11:05:15;;;;;;;5.88;4.70;;;;;;;25.87;41.50;101369.59;5025938;28;20025;-81
2023/06/10 11:07:52;;;;;;;6.22;4.55;;;;;;;25.93;41.36;101378.06;5027767;28;20116;-80
2023/06/10 11:10:17;;;;;;;7.18;4.13;;;;;;;25.91;40.18;101375.50;5028991;28;20052;-81
2023/06/10 11:12:45;;;;;;;6.53;4.70;;;;;;;25.91;39.12;101371.03;5029055;28;20110;-82
2023/06/10 11:15:18;;;;;;;7.93;4.65;;;;;;;25.95;42.00;101376.13;5029416;28;20404;-80
2023/06/10 11:18:25;;;;;;;6.70;4.82;;;;;;;26.01;40.77;101375.59;5028972;28;20025;-81
2023/06/10 11:20:50;;;;;;;6.72;4.70;;;;;;;26.04;39.70;101370.00;5030315;28;20022;-81